Time;durP1;ratioP1;P1;durP2;ratioP2;P2;SDS_P1;SDS_P2;PMS_P1;PMS_P2;Temp;Humidity;BMP_temperature;BMP_pressure;BME280_temperature;BME280_humidity;BME280_pressure;Samples;Min_cycle;Max_cycle;Signal;HPM_P1;HPM_P2
2022/11/11 00:00:28;;;;;;;7.83;4.33;;;3.50;68.30;;;;;;5088584;27;46644;-66
2022/11/11 00:02:57;;;;;;;12.00;5.20;;;3.50;67.30;;;;;;5087647;27;46621;-66
2022/11/11 00:05:24;;;;;;;7.40;4.63;;;3.50;68.30;;;;;;5087796;27;46399;-65
2022/11/11 00:07:59;;;;;;;6.68;4.32;;;3.50;68.20;;;;;;5089043;27;45843;-66
2022/11/11 00:10:26;;;;;;;9.57;3.90;;;3.50;68.30;;;;;;5075851;27;46473;-66
2022/11/11 00:12:52;;;;;;;7.72;4.72;;;3.50;67.20;;;;;;5089279;27;46297;-66
2022/11/11 00:15:17;;;;;;;6.87;4.20;;;3.50;68.40;;;;;;5087501;27;46601;-66
2022/11/11 00:26:09;;;;;;;11.57;5.07;;;3.50;68.40;;;;;;5087714;27;46452;-64
2022/11/11 00:28:34;;;;;;;8.25;4.72;;;3.50;68.30;;;;;;5087664;27;46401;-65
2022/11/11 00:31:10;;;;;;;9.03;5.27;;;3.50;68.40;;;;;;5088806;27;46497;-64
2022/11/11 00:33:36;;;;;;;7.45;5.20;;;3.90;68.70;;;;;;5087229;27;46645;-64
2022/11/11 00:36:02;;;;;;;12.77;5.70;;;3.50;68.40;;;;;;5088349;27;46329;-66
2022/11/11 00:38:46;;;;;;;10.45;5.47;;;3.50;68.40;;;;;;5088400;27;46438;-65
2022/11/11 00:41:14;;;;;;;8.20;5.23;;;3.50;68.30;;;;;;5086019;27;46402;-66
2022/11/11 00:43:40;;;;;;;10.53;4.73;;;3.50;68.40;;;;;;5089693;27;46531;-65
2022/11/11 00:51:34;;;;;;;5.40;4.10;;;3.40;68.70;;;;;;5087969;27;46550;-65
2022/11/11 00:54:00;;;;;;;6.87;4.00;;;3.30;68.70;;;;;;5084804;27;46950;-67
2022/11/11 00:56:26;;;;;;;7.60;4.03;;;3.20;68.80;;;;;;5100087;27;47104;-68
2022/11/11 00:58:52;;;;;;;7.17;3.73;;;3.20;68.80;;;;;;5087880;27;46506;-68
2022/11/11 01:01:17;;;;;;;4.30;2.90;;;3.10;68.80;;;;;;5087811;27;46396;-66
2022/11/11 01:03:43;;;;;;;5.93;3.00;;;3.10;68.80;;;;;;5087430;27;46457;-66
2022/11/11 01:06:12;;;;;;;4.40;3.10;;;3.10;68.80;;;;;;5088559;27;46371;-66
2022/11/11 01:08:37;;;;;;;8.10;3.10;;;3.00;68.70;;;;;;5087781;27;46618;-65
2022/11/11 01:11:03;;;;;;;6.50;3.33;;;3.00;68.80;;;;;;5088461;27;45944;-66
2022/11/11 01:13:31;;;;;;;11.30;3.63;;;3.00;68.90;;;;;;5087801;27;46444;-66
2022/11/11 01:16:01;;;;;;;4.47;3.17;;;2.90;69.00;;;;;;5090338;27;46466;-66
2022/11/11 01:18:27;;;;;;;5.25;3.45;;;2.90;69.20;;;;;;5093177;27;47335;-67
2022/11/11 01:21:07;;;;;;;6.43;4.10;;;2.80;68.00;;;;;;5091432;27;46676;-66
2022/11/11 01:23:35;;;;;;;5.60;3.65;;;2.80;69.00;;;;;;5091324;27;46444;-66
2022/11/11 01:26:15;;;;;;;6.22;3.63;;;2.80;69.00;;;;;;5087765;27;46352;-66
2022/11/11 01:28:41;;;;;;;9.75;4.25;;;2.80;69.00;;;;;;5091385;27;46520;-66
2022/11/11 01:31:12;;;;;;;4.50;3.37;;;2.80;67.70;;;;;;5090766;27;46363;-66
2022/11/11 01:33:38;;;;;;;7.63;3.92;;;2.90;68.80;;;;;;5092001;27;46565;-66
2022/11/11 01:36:07;;;;;;;9.52;4.93;;;2.90;68.50;;;;;;5090719;27;46441;-65
2022/11/11 01:38:33;;;;;;;6.55;4.47;;;3.00;68.20;;;;;;5094777;27;46570;-65
2022/11/11 01:40:59;;;;;;;12.63;4.60;;;3.20;67.00;;;;;;5090921;27;46691;-66
2022/11/11 01:43:24;;;;;;;17.73;6.13;;;3.20;68.00;;;;;;5091772;27;46809;-66
2022/11/11 01:45:59;;;;;;;6.53;4.93;;;3.40;67.90;;;;;;5088368;27;46106;-65
2022/11/11 01:51:36;;;;;;;29.25;7.93;;;3.20;67.60;;;;;;5092224;27;46471;-66
2022/11/11 01:54:07;;;;;;;14.98;6.22;;;3.20;67.80;;;;;;5091300;27;47144;-66
2022/11/11 01:56:33;;;;;;;9.70;5.72;;;3.20;68.00;;;;;;5091840;27;46456;-67
2022/11/11 01:59:05;;;;;;;12.70;6.10;;;3.10;68.10;;;;;;5093000;27;46241;-67
2022/11/11 02:01:33;;;;;;;16.85;6.10;;;3.10;67.10;;;;;;5092839;27;46443;-66
2022/11/11 02:07:06;;;;;;;11.52;5.88;;;3.10;68.30;;;;;;5033785;28;46486;-66
2022/11/11 02:09:33;;;;;;;11.10;5.70;;;3.10;68.30;;;;;;5081726;27;46348;-67
2022/11/11 02:14:51;;;;;;;9.20;5.18;;;3.10;68.30;;;;;;5088895;27;46672;-69
2022/11/11 02:17:16;;;;;;;38.92;7.90;;;3.00;68.20;;;;;;5092056;27;46565;-68
2022/11/11 02:20:12;;;;;;;46.20;7.20;;;3.10;68.20;;;;;;5091471;27;46517;-67
2022/11/11 02:22:56;;;;;;;21.55;6.18;;;3.10;67.10;;;;;;5074370;27;46513;-65
2022/11/11 02:25:25;;;;;;;10.60;5.53;;;3.10;68.20;;;;;;5089470;27;47165;-65
2022/11/11 02:27:53;;;;;;;12.45;6.38;;;3.10;69.20;;;;;;5090713;27;46798;-67
2022/11/11 02:30:20;;;;;;;10.55;5.57;;;3.20;68.00;;;;;;5089092;27;46793;-66
2022/11/11 02:32:51;;;;;;;16.10;6.43;;;3.20;66.80;;;;;;5091161;27;46665;-67
2022/11/11 02:35:43;;;;;;;17.58;6.97;;;3.30;68.00;;;;;;5089827;27;46964;-67
2022/11/11 02:38:12;;;;;;;12.00;5.57;;;3.10;67.90;;;;;;5090503;27;46433;-67
2022/11/11 02:43:26;;;;;;;12.77;4.97;;;3.10;68.40;;;;;;5091962;27;46417;-67
2022/11/11 02:45:52;;;;;;;12.45;5.65;;;3.00;68.20;;;;;;5088399;27;46545;-66
2022/11/11 02:48:17;;;;;;;10.65;4.95;;;3.00;68.40;;;;;;5089994;27;46559;-65
2022/11/11 02:50:43;;;;;;;7.10;4.83;;;2.90;67.50;;;;;;5089974;27;46444;-66
2022/11/11 02:53:08;;;;;;;7.93;4.53;;;2.90;68.60;;;;;;5091007;27;46078;-67
2022/11/11 02:55:34;;;;;;;6.73;4.40;;;2.90;68.60;;;;;;5088063;27;47478;-66
2022/11/11 02:58:00;;;;;;;7.20;4.43;;;2.90;68.60;;;;;;5088859;27;46259;-65
2022/11/11 03:00:26;;;;;;;7.13;4.30;;;2.90;69.70;;;;;;5090230;27;45852;-67
2022/11/11 03:02:51;;;;;;;9.83;4.90;;;2.90;67.50;;;;;;5090841;27;46338;-65
2022/11/11 03:05:17;;;;;;;9.43;5.03;;;2.90;68.50;;;;;;5088270;27;46474;-65
2022/11/11 03:07:43;;;;;;;11.30;5.13;;;2.90;68.40;;;;;;5090267;27;46392;-66
2022/11/11 03:10:08;;;;;;;15.10;4.73;;;2.90;68.40;;;;;;5090825;27;46522;-67
2022/11/11 03:12:34;;;;;;;12.37;5.47;;;2.90;67.30;;;;;;5089794;27;46460;-67
2022/11/11 03:15:00;;;;;;;11.07;5.80;;;2.90;68.20;;;;;;5089914;27;47096;-66
2022/11/11 03:17:40;;;;;;;13.20;5.90;;;3.00;68.20;;;;;;5088128;27;46542;-65
2022/11/11 03:23:03;;;;;;;19.67;5.95;;;3.00;67.00;;;;;;5089921;27;46717;-66
2022/11/11 03:25:37;;;;;;;26.25;7.00;;;3.00;68.20;;;;;;5089736;27;46700;-67
2022/11/11 03:28:05;;;;;;;27.60;5.57;;;3.00;68.30;;;;;;5088289;27;46503;-66
2022/11/11 03:30:31;;;;;;;35.42;6.95;;;2.90;68.20;;;;;;5091637;27;46440;-66
2022/11/11 03:32:58;;;;;;;16.90;6.00;;;2.90;67.30;;;;;;5087372;27;46488;-67
2022/11/11 03:35:24;;;;;;;11.32;5.03;;;2.80;68.40;;;;;;5090480;27;47252;-65
2022/11/11 03:40:33;;;;;;;11.13;4.82;;;2.80;68.60;;;;;;5088393;27;46415;-65
2022/11/11 03:42:59;;;;;;;8.83;5.00;;;2.80;67.60;;;;;;5089138;27;46767;-65
2022/11/11 03:45:25;;;;;;;11.80;5.97;;;2.80;68.70;;;;;;5086911;27;48080;-69
2022/11/11 03:47:50;;;;;;;9.10;5.50;;;2.80;68.40;;;;;;5088094;27;46579;-66
2022/11/11 03:50:16;;;;;;;10.67;5.70;;;2.90;68.30;;;;;;5089039;27;46619;-68
2022/11/11 03:52:42;;;;;;;17.50;5.87;;;3.00;67.00;;;;;;5087908;27;46446;-65
2022/11/11 03:55:09;;;;;;;12.20;5.73;;;3.00;67.70;;;;;;5088105;27;46618;-66
2022/11/11 03:57:41;;;;;;;25.70;5.32;;;3.00;67.40;;;;;;5089582;27;46559;-66
2022/11/11 04:00:08;;;;;;;29.83;6.00;;;3.00;67.40;;;;;;5090474;27;46666;-65
2022/11/11 04:10:46;;;;;;;6.43;4.20;;;2.90;67.10;;;;;;5090080;27;46423;-66
2022/11/11 04:16:05;;;;;;;5.97;4.53;;;2.90;68.30;;;;;;5088370;27;46431;-67
2022/11/11 04:24:00;;;;;;;6.47;3.80;;;2.80;68.70;;;;;;5089105;27;46448;-66
2022/11/11 04:26:26;;;;;;;6.03;4.37;;;2.80;68.80;;;;;;5088649;27;46532;-66
2022/11/11 04:32:34;;;;;;;7.00;3.97;;;2.70;68.80;;;;;;5088059;27;45919;-66
2022/11/11 04:34:22;;;;;;;6.78;3.60;;;2.60;68.80;;;;;;5086830;27;46436;-65
2022/11/11 04:36:47;;;;;;;6.30;3.70;;;2.60;68.80;;;;;;5090966;27;46521;-66
2022/11/11 04:41:57;;;;;;;4.85;3.55;;;2.50;68.00;;;;;;5087146;27;46515;-65
2022/11/11 04:47:07;;;;;;;7.00;3.72;;;2.50;68.90;;;;;;5089051;27;46402;-66
2022/11/11 04:49:32;;;;;;;6.33;3.67;;;2.60;68.90;;;;;;5088632;27;46630;-66
2022/11/11 04:57:26;;;;;;;6.35;3.70;;;2.60;68.50;;;;;;5091980;27;45892;-65
2022/11/11 04:59:51;;;;;;;5.67;3.33;;;2.60;68.40;;;;;;5093384;27;46453;-67
2022/11/11 05:05:01;;;;;;;6.15;3.53;;;2.70;68.30;;;;;;5090165;27;46395;-66
2022/11/11 05:10:11;;;;;;;5.07;3.22;;;2.70;68.20;;;;;;5086570;27;46397;-66
2022/11/11 05:12:36;;;;;;;5.67;3.23;;;2.70;67.10;;;;;;5094243;27;46531;-66
2022/11/11 05:23:14;;;;;;;5.20;3.47;;;2.80;67.20;;;;;;5092673;27;46337;-66
2022/11/11 05:25:40;;;;;;;4.40;3.30;;;2.80;68.20;;;;;;5092583;27;46350;-65
2022/11/11 05:28:05;;;;;;;7.20;3.40;;;2.80;68.20;;;;;;5093049;27;47401;-66
2022/11/11 05:30:31;;;;;;;5.30;3.90;;;2.80;68.20;;;;;;5091657;27;46338;-67
2022/11/11 05:32:57;;;;;;;4.88;3.42;;;2.80;67.30;;;;;;5091428;27;46220;-65
2022/11/11 05:35:23;;;;;;;8.27;3.70;;;2.70;68.30;;;;;;5091716;27;46434;-66
2022/11/11 05:38:19;;;;;;;8.00;4.00;;;2.70;68.30;;;;;;5091345;27;46507;-66
2022/11/11 05:40:34;;;;;;;6.05;3.75;;;2.80;68.20;;;;;;5090478;27;46489;-67
2022/11/11 05:42:59;;;;;;;28.27;12.33;;;2.80;67.00;;;;;;5090715;27;46466;-66
2022/11/11 05:45:25;;;;;;;63.37;28.20;;;3.00;68.20;;;;;;5091276;27;46394;-66
2022/11/11 05:47:50;;;;;;;12.70;7.53;;;3.40;68.20;;;;;;5091695;27;46775;-66
2022/11/11 05:50:16;;;;;;;12.53;6.70;;;3.60;67.80;;;;;;5092678;27;46326;-66
2022/11/11 05:52:48;;;;;;;13.00;8.33;;;3.40;66.90;;;;;;5091444;27;46463;-66
2022/11/11 05:55:14;;;;;;;16.17;8.45;;;3.40;68.20;;;;;;5089185;27;46400;-67
2022/11/11 05:57:40;;;;;;;9.70;6.97;;;3.50;68.50;;;;;;5091589;27;46462;-66
2022/11/11 06:00:06;;;;;;;13.20;7.90;;;3.40;68.70;;;;;;5092177;27;46507;-68
2022/11/11 06:02:31;;;;;;;10.65;6.30;;;3.20;67.70;;;;;;5090716;27;46463;-65
2022/11/11 06:04:57;;;;;;;8.53;5.30;;;3.20;68.90;;;;;;5091160;27;46394;-66
2022/11/11 06:07:22;;;;;;;12.23;5.87;;;3.20;69.00;;;;;;5087707;27;46657;-67
2022/11/11 06:09:48;;;;;;;12.00;4.73;;;3.10;69.20;;;;;;5089266;27;46388;-65
2022/11/11 06:12:13;;;;;;;8.10;5.13;;;3.00;68.20;;;;;;5091968;27;46429;-65
2022/11/11 06:14:39;;;;;;;8.27;5.67;;;3.00;69.20;;;;;;5089738;27;46450;-67
2022/11/11 06:17:05;;;;;;;15.20;7.87;;;3.10;69.10;;;;;;5092851;27;47212;-66
2022/11/11 06:19:30;;;;;;;9.90;6.53;;;3.00;69.20;;;;;;5090401;27;46440;-66
2022/11/11 06:21:56;;;;;;;10.17;4.83;;;3.10;68.30;;;;;;5090060;27;46488;-67
2022/11/11 06:24:22;;;;;;;7.73;5.03;;;3.10;69.30;;;;;;5089565;27;46494;-65
2022/11/11 06:26:47;;;;;;;11.13;5.10;;;3.00;69.40;;;;;;5090325;27;47542;-65
2022/11/11 06:29:13;;;;;;;6.97;4.00;;;3.00;69.40;;;;;;5093394;27;46499;-66
2022/11/11 06:31:38;;;;;;;19.10;10.07;;;3.00;68.40;;;;;;5090513;27;46365;-65
2022/11/11 06:34:04;;;;;;;12.77;6.70;;;3.10;69.50;;;;;;5089551;27;45947;-65
2022/11/11 06:36:30;;;;;;;8.70;5.57;;;3.50;69.30;;;;;;5091535;27;47180;-65
2022/11/11 06:38:55;;;;;;;7.60;4.67;;;3.70;68.90;;;;;;5091783;27;46427;-67
2022/11/11 06:41:24;;;;;;;6.47;4.77;;;3.80;68.90;;;;;;5089845;27;46734;-65
2022/11/11 06:43:50;;;;;;;6.40;4.27;;;3.70;68.80;;;;;;5089256;27;46092;-66
2022/11/11 06:46:24;;;;;;;5.35;3.85;;;3.60;69.10;;;;;;5087865;27;46370;-66
2022/11/11 06:48:50;;;;;;;7.05;4.50;;;3.70;69.20;;;;;;5087905;27;46804;-65
2022/11/11 06:51:16;;;;;;;8.90;4.30;;;3.60;69.30;;;;;;5088713;27;46391;-65
2022/11/11 06:53:42;;;;;;;8.33;5.13;;;3.60;69.40;;;;;;5090364;27;46388;-65
2022/11/11 06:56:08;;;;;;;5.50;4.17;;;3.80;69.40;;;;;;5090271;27;46850;-66
2022/11/11 06:58:34;;;;;;;8.57;4.50;;;3.80;69.10;;;;;;5088582;27;46401;-66
2022/11/11 07:01:04;;;;;;;7.63;5.07;;;4.00;68.00;;;;;;5089449;27;46542;-66
2022/11/11 07:03:31;;;;;;;10.00;5.20;;;4.00;69.00;;;;;;5092496;27;46537;-66
2022/11/11 07:06:00;;;;;;;6.90;5.23;;;4.00;69.20;;;;;;5090741;27;46409;-65
2022/11/11 07:08:25;;;;;;;6.50;4.25;;;4.00;69.20;;;;;;5090222;27;45912;-66
2022/11/11 07:10:51;;;;;;;7.80;5.20;;;4.20;68.20;;;;;;5082246;27;46882;-67
2022/11/11 07:13:17;;;;;;;8.43;4.90;;;4.30;68.20;;;;;;5085581;27;46701;-68
2022/11/11 07:15:43;;;;;;;5.63;4.10;;;4.30;68.90;;;;;;5085289;27;46517;-71
2022/11/11 07:18:09;;;;;;;5.97;4.10;;;4.40;68.60;;;;;;5081786;27;46535;-71
2022/11/11 07:20:36;;;;;;;6.40;4.20;;;4.50;68.50;;;;;;5087317;27;46600;-67
2022/11/11 07:23:03;;;;;;;6.30;4.40;;;4.50;67.50;;;;;;5086745;27;46523;-71
2022/11/11 07:25:28;;;;;;;5.73;4.03;;;4.60;68.60;;;;;;5084850;27;47076;-68
2022/11/11 07:27:54;;;;;;;7.07;4.20;;;4.80;68.40;;;;;;5081504;27;46367;-66
2022/11/11 07:30:20;;;;;;;11.03;4.10;;;4.90;68.20;;;;;;5085116;27;46478;-69
2022/11/11 07:32:47;;;;;;;5.67;3.70;;;4.80;67.00;;;;;;5086130;27;46669;-67
2022/11/11 07:35:14;;;;;;;9.50;5.30;;;4.80;68.20;;;;;;5083011;27;46670;-69
2022/11/11 07:37:40;;;;;;;9.20;5.22;;;4.90;68.30;;;;;;5084908;27;46672;-68
2022/11/11 07:40:07;;;;;;;8.53;4.50;;;4.90;68.20;;;;;;5087696;27;46373;-67
2022/11/11 07:42:40;;;;;;;8.60;5.00;;;5.00;67.20;;;;;;5084936;27;46667;-66
2022/11/11 07:45:07;;;;;;;11.40;5.30;;;5.10;68.20;;;;;;5085575;27;46908;-68
2022/11/11 07:47:36;;;;;;;8.97;5.80;;;5.20;67.90;;;;;;5087302;27;46321;-66
2022/11/11 07:50:03;;;;;;;12.23;6.77;;;5.30;67.80;;;;;;5087165;27;46685;-65
2022/11/11 07:52:28;;;;;;;11.83;6.03;;;5.30;66.20;;;;;;5086863;27;46916;-66
2022/11/11 07:54:54;;;;;;;9.63;5.40;;;5.40;67.00;;;;;;5084410;27;46389;-66
2022/11/11 07:57:19;;;;;;;7.13;4.10;;;5.40;66.70;;;;;;5085095;27;46535;-66
2022/11/11 07:59:46;;;;;;;8.13;4.70;;;5.50;66.70;;;;;;5085545;27;45916;-66
2022/11/11 08:02:12;;;;;;;6.63;4.40;;;5.70;65.80;;;;;;5083570;27;46588;-64
2022/11/11 08:04:38;;;;;;;6.40;4.37;;;5.70;66.80;;;;;;5085264;27;47311;-68
2022/11/11 08:07:04;;;;;;;8.53;3.90;;;5.80;66.90;;;;;;5080776;27;46548;-69
2022/11/11 08:09:29;;;;;;;7.40;4.07;;;6.00;65.80;;;;;;5086417;27;47046;-66
2022/11/11 08:14:39;;;;;;;7.53;4.50;;;6.10;66.60;;;;;;5085468;27;47053;-68
2022/11/11 08:17:04;;;;;;;9.70;5.53;;;6.10;66.40;;;;;;5084122;27;46460;-66
2022/11/11 08:19:30;;;;;;;16.23;6.60;;;6.20;66.30;;;;;;5085101;27;46018;-67
2022/11/11 08:21:56;;;;;;;11.60;6.30;;;6.30;65.10;;;;;;5084444;27;46610;-67
2022/11/11 08:24:21;;;;;;;11.43;6.13;;;6.40;66.30;;;;;;5083128;27;46518;-67
2022/11/11 08:26:48;;;;;;;7.80;5.20;;;6.40;66.30;;;;;;5087454;27;46462;-67
2022/11/11 08:29:13;;;;;;;6.60;4.63;;;6.40;66.50;;;;;;5089917;27;46585;-67
2022/11/11 08:31:39;;;;;;;6.13;3.50;;;6.40;65.50;;;;;;5089360;27;46861;-67
2022/11/11 08:34:05;;;;;;;5.00;3.60;;;6.40;66.70;;;;;;5088223;27;46668;-66
2022/11/11 08:36:30;;;;;;;4.80;3.70;;;6.40;66.80;;;;;;5089961;27;46699;-66
2022/11/11 08:38:56;;;;;;;5.60;3.83;;;6.50;67.00;;;;;;5088996;27;46011;-66
2022/11/11 08:41:22;;;;;;;5.60;3.80;;;6.60;67.00;;;;;;5087788;27;46956;-66
2022/11/11 08:43:52;;;;;;;7.83;4.63;;;6.60;66.90;;;;;;5090320;27;46502;-66
2022/11/11 08:46:17;;;;;;;7.40;3.70;;;6.70;66.90;;;;;;5087110;27;46424;-67
2022/11/11 08:48:43;;;;;;;7.10;5.10;;;6.70;66.90;;;;;;5081170;27;46470;-67
2022/11/11 08:51:08;;;;;;;15.07;8.03;;;6.70;66.90;;;;;;5083967;27;46564;-69
2022/11/11 08:53:34;;;;;;;29.00;16.00;;;6.70;66.80;;;;;;5086984;27;46427;-69
2022/11/11 08:56:02;;;;;;;26.17;14.30;;;6.80;66.90;;;;;;5088652;27;45915;-68
2022/11/11 08:58:28;;;;;;;20.87;10.50;;;6.90;67.10;;;;;;5088263;27;46328;-66
2022/11/11 09:00:53;;;;;;;17.33;9.47;;;7.00;66.20;;;;;;5086381;27;46649;-68
2022/11/11 09:03:19;;;;;;;29.33;16.63;;;7.00;67.00;;;;;;5085773;27;47361;-67
2022/11/11 09:05:46;;;;;;;21.43;12.20;;;7.10;67.00;;;;;;5087455;27;46576;-67
2022/11/11 09:08:12;;;;;;;25.17;12.47;;;7.20;67.10;;;;;;5088891;27;46396;-68
2022/11/11 09:10:37;;;;;;;14.50;8.93;;;7.30;67.00;;;;;;5089022;27;46925;-68
2022/11/11 09:13:03;;;;;;;7.93;4.80;;;7.30;66.00;;;;;;5085658;27;46584;-67
2022/11/11 09:15:29;;;;;;;7.80;4.53;;;7.40;67.20;;;;;;5087917;27;46481;-67
2022/11/11 09:17:55;;;;;;;9.17;5.30;;;7.50;67.20;;;;;;5087694;27;46383;-67
2022/11/11 09:20:21;;;;;;;20.33;5.23;;;7.70;67.30;;;;;;5087278;27;46585;-68
2022/11/11 09:22:48;;;;;;;5.77;3.50;;;7.90;65.80;;;;;;5087011;27;47243;-67
2022/11/11 09:25:14;;;;;;;8.27;4.27;;;8.10;66.80;;;;;;5088207;27;46458;-68
2022/11/11 09:27:40;;;;;;;8.53;3.70;;;8.30;66.70;;;;;;5089523;27;46467;-69
2022/11/11 09:30:07;;;;;;;7.53;4.03;;;8.50;66.60;;;;;;5082971;27;46748;-68
2022/11/11 09:32:33;;;;;;;8.40;5.80;;;8.80;65.30;;;;;;5088012;27;46569;-67
2022/11/11 09:34:59;;;;;;;7.90;5.63;;;8.90;66.20;;;;;;5088964;27;46531;-67
2022/11/11 09:37:25;;;;;;;7.60;5.60;;;9.20;65.80;;;;;;5089126;27;46277;-67
2022/11/11 09:39:50;;;;;;;10.70;5.67;;;9.30;65.40;;;;;;5087673;27;46381;-69
2022/11/11 09:42:16;;;;;;;4.70;3.60;;;9.50;65.10;;;;;;5087273;27;49203;-68
2022/11/11 09:45:01;;;;;;;8.23;3.53;;;9.60;65.10;;;;;;5085958;27;46474;-67
2022/11/11 09:47:39;;;;;;;5.93;3.90;;;9.60;65.10;;;;;;5082492;27;46293;-67
2022/11/11 09:50:24;;;;;;;9.83;3.77;;;9.80;65.20;;;;;;5086809;27;47431;-67
2022/11/11 09:52:58;;;;;;;6.80;4.03;;;9.90;64.30;;;;;;5086201;27;47295;-66
2022/11/11 09:55:41;;;;;;;6.53;4.03;;;10.00;64.50;;;;;;5086604;27;45942;-66
2022/11/11 09:58:28;;;;;;;9.20;4.93;;;10.10;64.50;;;;;;5087098;27;46548;-66
2022/11/11 10:01:20;;;;;;;5.50;3.63;;;10.20;63.60;;;;;;5087839;27;46516;-68
2022/11/11 10:04:12;;;;;;;7.27;4.20;;;10.20;64.70;;;;;;5087037;27;46606;-68
2022/11/11 10:06:38;;;;;;;9.13;4.20;;;10.10;64.50;;;;;;5056692;27;46402;-67
2022/11/11 10:09:25;;;;;;;16.53;4.63;;;10.10;64.80;;;;;;5089377;27;46427;-68
2022/11/11 10:12:10;;;;;;;5.90;4.20;;;10.10;65.10;;;;;;5088082;27;46400;-67
2022/11/11 10:14:40;;;;;;;7.40;3.50;;;10.10;65.20;;;;;;5088438;27;46678;-67
2022/11/11 10:17:30;;;;;;;7.70;4.00;;;10.20;65.10;;;;;;5088591;27;46389;-68
2022/11/11 10:20:17;;;;;;;9.60;4.13;;;10.20;64.70;;;;;;5087674;27;46393;-68
2022/11/11 10:22:44;;;;;;;6.07;4.13;;;10.30;63.70;;;;;;5086167;27;46464;-68
2022/11/11 10:25:15;;;;;;;7.80;4.87;;;10.50;64.90;;;;;;5085379;27;46656;-68
2022/11/11 10:27:43;;;;;;;7.70;4.03;;;10.50;64.90;;;;;;5085095;27;46637;-69
2022/11/11 10:30:32;;;;;;;6.50;4.33;;;10.60;65.00;;;;;;5085551;27;46490;-70
2022/11/11 10:33:03;;;;;;;6.13;4.40;;;10.70;64.00;;;;;;5078792;27;46660;-68
2022/11/11 10:35:31;;;;;;;9.13;4.47;;;10.80;64.70;;;;;;5083161;27;46444;-66
2022/11/11 10:38:09;;;;;;;5.80;3.87;;;11.10;65.40;;;;;;5086055;27;46570;-67
2022/11/11 10:40:51;;;;;;;7.20;3.77;;;11.20;63.60;;;;;;5086474;27;46449;-66
2022/11/11 10:43:27;;;;;;;9.90;4.03;;;11.30;63.50;;;;;;5085244;27;46507;-67
2022/11/11 10:46:28;;;;;;;6.60;3.90;;;11.50;63.30;;;;;;5085233;27;46677;-68
2022/11/11 10:49:16;;;;;;;8.10;4.40;;;11.50;63.10;;;;;;5021437;28;46527;-67
2022/11/11 10:51:58;;;;;;;6.30;4.10;;;11.70;62.90;;;;;;5081338;27;46511;-67
2022/11/11 10:54:35;;;;;;;6.10;4.33;;;11.80;62.40;;;;;;5085600;27;46439;-69
2022/11/11 10:57:34;;;;;;;4.97;3.40;;;11.80;62.50;;;;;;5086797;27;46459;-67
2022/11/11 11:00:08;;;;;;;6.53;3.97;;;11.90;62.30;;;;;;5071058;27;46575;-68
2022/11/11 11:02:58;;;;;;;7.63;4.13;;;11.80;61.30;;;;;;5083834;27;47066;-67
2022/11/11 11:05:35;;;;;;;4.87;3.70;;;11.90;62.50;;;;;;5084094;27;46393;-68
2022/11/11 11:08:07;;;;;;;6.43;4.10;;;12.10;62.30;;;;;;5085057;27;46506;-69
2022/11/11 11:10:54;;;;;;;6.43;4.57;;;12.10;62.00;;;;;;5086381;27;46382;-69
2022/11/11 11:13:35;;;;;;;5.90;3.47;;;12.10;61.70;;;;;;5086294;27;47063;-68
2022/11/11 11:16:09;;;;;;;6.90;4.80;;;12.20;62.90;;;;;;5085496;27;46850;-70
2022/11/11 11:18:35;;;;;;;7.63;4.73;;;12.30;61.60;;;;;;5086949;27;47542;-69
2022/11/11 11:21:06;;;;;;;7.07;4.30;;;12.20;61.80;;;;;;5084493;27;46833;-68
2022/11/11 11:23:45;;;;;;;10.43;4.43;;;12.20;63.10;;;;;;5083685;27;46672;-67
2022/11/11 11:26:14;;;;;;;8.10;3.90;;;12.20;61.50;;;;;;5085733;27;46492;-66
2022/11/11 11:28:58;;;;;;;7.40;4.37;;;12.30;61.90;;;;;;5085016;27;46493;-67
2022/11/11 11:31:41;;;;;;;46.47;24.63;;;12.20;61.30;;;;;;5084875;27;46516;-66
2022/11/11 11:34:07;;;;;;;297.47;121.33;;;12.20;61.10;;;;;;5087582;27;45818;-67
2022/11/11 11:36:33;;;;;;;9.87;7.10;;;12.20;61.30;;;;;;5088482;27;46364;-67
2022/11/11 11:38:59;;;;;;;8.03;5.00;;;12.20;61.60;;;;;;5089361;27;46277;-67
2022/11/11 11:41:43;;;;;;;6.03;4.00;;;12.20;61.30;;;;;;5087266;27;46641;-68
2022/11/11 11:44:38;;;;;;;6.27;4.40;;;12.20;61.00;;;;;;5086824;27;46711;-66
2022/11/11 11:47:36;;;;;;;76.30;44.43;;;12.20;60.90;;;;;;5087967;27;46722;-68
2022/11/11 11:50:25;;;;;;;11.57;6.73;;;12.20;61.00;;;;;;5041761;27;48129;-69
2022/11/11 11:52:58;;;;;;;7.10;4.67;;;12.30;60.40;;;;;;5087321;27;46598;-69
2022/11/11 11:55:53;;;;;;;6.90;4.57;;;12.40;60.50;;;;;;5087780;27;46763;-68
2022/11/11 11:58:40;;;;;;;8.40;4.40;;;12.40;60.00;;;;;;5089060;27;46656;-69
2022/11/11 12:01:34;;;;;;;6.30;4.60;;;12.50;60.00;;;;;;5087353;27;46525;-67
2022/11/11 12:04:06;;;;;;;6.33;4.40;;;12.60;59.60;;;;;;5087235;27;46400;-68
2022/11/11 12:06:56;;;;;;;9.73;6.13;;;12.80;59.30;;;;;;5087349;27;46384;-68
2022/11/11 12:09:33;;;;;;;11.10;6.50;;;12.90;58.80;;;;;;5088433;27;45890;-67
2022/11/11 12:12:31;;;;;;;15.67;9.30;;;12.90;58.90;;;;;;5089843;27;46613;-68
2022/11/11 12:15:08;;;;;;;8.27;5.47;;;13.10;58.30;;;;;;5088322;27;46428;-68
2022/11/11 12:18:08;;;;;;;6.83;4.77;;;13.30;57.70;;;;;;5088872;27;46378;-67
2022/11/11 12:20:38;;;;;;;6.10;4.70;;;13.40;56.90;;;;;;5089851;27;46563;-69
2022/11/11 12:23:49;;;;;;;86.00;41.50;;;13.50;56.90;;;;;;5087866;27;47333;-69
2022/11/11 12:26:54;;;;;;;13.37;7.23;;;13.40;56.90;;;;;;5088156;27;46953;-67
2022/11/11 12:29:41;;;;;;;10.07;4.90;;;13.30;57.50;;;;;;5043507;27;46496;-67
2022/11/11 12:32:31;;;;;;;10.03;4.70;;;13.30;57.50;;;;;;5087082;27;46786;-67
2022/11/11 12:35:13;;;;;;;9.33;6.10;;;13.40;57.30;;;;;;5089750;27;46474;-69
2022/11/11 12:38:01;;;;;;;6.83;4.23;;;13.40;57.40;;;;;;5079404;27;46423;-68
2022/11/11 12:40:39;;;;;;;6.33;4.20;;;13.20;57.30;;;;;;5087611;27;46424;-69
2022/11/11 12:43:29;;;;;;;10.97;5.70;;;13.10;58.00;;;;;;5087015;27;46373;-67
2022/11/11 12:45:59;;;;;;;7.20;3.97;;;13.20;57.80;;;;;;5085761;27;46587;-69
2022/11/11 12:49:04;;;;;;;6.40;4.00;;;13.10;58.10;;;;;;5087278;27;46496;-68
2022/11/11 12:51:29;;;;;;;10.77;5.60;;;13.00;58.00;;;;;;5085668;27;46534;-67
2022/11/11 12:54:00;;;;;;;6.77;4.83;;;13.10;58.20;;;;;;5085583;27;46879;-67
2022/11/11 12:56:39;;;;;;;8.63;4.33;;;13.20;57.60;;;;;;5088223;27;46599;-68
2022/11/11 12:59:25;;;;;;;6.53;4.37;;;13.30;57.20;;;;;;5088664;27;46796;-68
2022/11/11 13:02:07;;;;;;;9.67;5.23;;;13.30;56.90;;;;;;5086492;27;46444;-69
2022/11/11 13:05:03;;;;;;;5.97;4.17;;;12.90;56.80;;;;;;5086893;27;46982;-68
2022/11/11 13:08:00;;;;;;;8.27;5.07;;;13.30;56.80;;;;;;5088455;27;47117;-67
2022/11/11 13:10:32;;;;;;;13.63;4.37;;;13.10;57.00;;;;;;5067986;27;46153;-67
2022/11/11 13:13:10;;;;;;;7.30;4.90;;;13.00;57.30;;;;;;5091423;27;46645;-68
2022/11/11 13:15:35;;;;;;;6.73;4.80;;;12.80;57.60;;;;;;5090854;27;46398;-68
2022/11/11 13:18:01;;;;;;;7.20;4.40;;;12.90;57.90;;;;;;5092487;27;47529;-70
2022/11/11 13:20:45;;;;;;;7.17;4.60;;;12.90;57.50;;;;;;5090537;27;46492;-68
2022/11/11 13:23:11;;;;;;;8.93;5.23;;;13.00;57.10;;;;;;5089171;27;46448;-69
2022/11/11 13:25:46;;;;;;;10.90;5.50;;;13.00;57.10;;;;;;5090647;27;46833;-68
2022/11/11 13:28:27;;;;;;;8.43;5.30;;;12.90;57.20;;;;;;5101820;27;48071;-69
2022/11/11 13:30:55;;;;;;;12.13;5.60;;;12.70;56.60;;;;;;5089192;27;46397;-68
2022/11/11 13:33:25;;;;;;;8.00;5.57;;;12.70;57.60;;;;;;5089837;27;46613;-66
2022/11/11 13:36:00;;;;;;;7.93;5.30;;;12.70;57.50;;;;;;5087427;27;46381;-68
2022/11/11 13:38:34;;;;;;;11.07;5.73;;;12.60;57.70;;;;;;5091510;27;47457;-67
2022/11/11 13:41:05;;;;;;;8.00;5.27;;;12.40;57.20;;;;;;5090971;27;46431;-68
2022/11/11 13:43:43;;;;;;;9.50;5.80;;;12.40;58.20;;;;;;5090128;27;46399;-69
2022/11/11 13:46:28;;;;;;;13.97;5.60;;;12.20;58.50;;;;;;5091298;27;46435;-67
2022/11/11 13:48:55;;;;;;;9.20;5.50;;;12.10;59.00;;;;;;5089311;27;47326;-69
2022/11/11 13:51:26;;;;;;;9.73;5.60;;;12.00;59.20;;;;;;5090968;27;46197;-69
2022/11/11 13:53:53;;;;;;;10.13;5.60;;;12.00;59.10;;;;;;5091773;27;46517;-69
2022/11/11 13:56:35;;;;;;;9.73;4.93;;;12.00;59.10;;;;;;5093289;27;46302;-67
2022/11/11 13:59:01;;;;;;;7.10;5.20;;;11.90;58.90;;;;;;5092290;27;46645;-68
2022/11/11 14:01:39;;;;;;;9.03;5.13;;;11.90;58.90;;;;;;5090982;27;46503;-68
2022/11/11 14:04:07;;;;;;;12.47;5.30;;;11.80;58.80;;;;;;5086593;27;46120;-69
2022/11/11 14:06:33;;;;;;;17.80;10.50;;;11.80;59.10;;;;;;5090516;27;46409;-68
2022/11/11 14:08:59;;;;;;;15.20;8.87;;;11.80;59.10;;;;;;5088928;27;47291;-69
2022/11/11 14:11:25;;;;;;;9.30;5.80;;;11.80;59.10;;;;;;5091255;27;46538;-68
2022/11/11 14:13:55;;;;;;;13.13;7.97;;;11.70;59.10;;;;;;5090763;27;46545;-68
2022/11/11 14:16:52;;;;;;;20.73;11.73;;;11.60;59.20;;;;;;5091753;27;46363;-67
2022/11/11 14:19:18;;;;;;;13.27;8.50;;;11.50;59.50;;;;;;5073668;27;48124;-67
2022/11/11 14:21:53;;;;;;;10.17;6.67;;;11.50;59.60;;;;;;5091688;27;46596;-67
2022/11/11 14:24:44;;;;;;;6.97;5.20;;;11.40;59.90;;;;;;5086886;27;46424;-69
2022/11/11 14:27:10;;;;;;;8.07;5.33;;;11.30;60.00;;;;;;5090892;27;46687;-67
2022/11/11 14:29:49;;;;;;;8.03;5.30;;;11.30;60.40;;;;;;5090289;27;46553;-67